sensor_id;sensor_type;location;lat;lon;timestamp;P1;durP1;ratioP1;P2;durP2;ratioP2
78169;SDS011;67412;49.892;14.490;2024-03-22T00:00:36;17.50;;;6.60;;
78169;SDS011;67412;49.892;14.490;2024-03-22T00:03:02;18.60;;;7.10;;
78169;SDS011;67412;49.892;14.490;2024-03-22T00:05:27;16.90;;;6.70;;
78169;SDS011;67412;49.892;14.490;2024-03-22T00:07:52;19.38;;;6.53;;
78169;SDS011;67412;49.892;14.490;2024-03-22T00:10:18;17.90;;;6.65;;
78169;SDS011;67412;49.892;14.490;2024-03-22T00:12:43;19.40;;;7.03;;
78169;SDS011;67412;49.892;14.490;2024-03-22T00:15:08;16.17;;;6.82;;
78169;SDS011;67412;49.892;14.490;2024-03-22T00:17:34;17.20;;;6.93;;
78169;SDS011;67412;49.892;14.490;2024-03-22T00:20:00;18.00;;;7.30;;
78169;SDS011;67412;49.892;14.490;2024-03-22T00:22:26;18.33;;;6.53;;
78169;SDS011;67412;49.892;14.490;2024-03-22T00:24:51;17.77;;;7.55;;
78169;SDS011;67412;49.892;14.490;2024-03-22T00:27:17;17.50;;;7.03;;
78169;SDS011;67412;49.892;14.490;2024-03-22T00:29:42;18.92;;;7.65;;
78169;SDS011;67412;49.892;14.490;2024-03-22T00:32:08;18.90;;;6.60;;
78169;SDS011;67412;49.892;14.490;2024-03-22T00:34:34;20.05;;;7.32;;
78169;SDS011;67412;49.892;14.490;2024-03-22T00:37:00;19.17;;;7.50;;
78169;SDS011;67412;49.892;14.490;2024-03-22T00:39:25;19.05;;;7.47;;
78169;SDS011;67412;49.892;14.490;2024-03-22T00:41:50;19.35;;;7.15;;
78169;SDS011;67412;49.892;14.490;2024-03-22T00:44:16;16.63;;;6.90;;
78169;SDS011;67412;49.892;14.490;2024-03-22T00:46:41;18.42;;;6.63;;
78169;SDS011;67412;49.892;14.490;2024-03-22T00:49:06;15.93;;;6.63;;
78169;SDS011;67412;49.892;14.490;2024-03-22T00:51:32;19.02;;;7.20;;
78169;SDS011;67412;49.892;14.490;2024-03-22T00:53:57;20.42;;;7.63;;
78169;SDS011;67412;49.892;14.490;2024-03-22T00:56:22;18.92;;;7.80;;
78169;SDS011;67412;49.892;14.490;2024-03-22T00:58:48;19.83;;;7.72;;
78169;SDS011;67412;49.892;14.490;2024-03-22T01:01:13;18.77;;;7.40;;
78169;SDS011;67412;49.892;14.490;2024-03-22T01:03:38;17.42;;;6.55;;
78169;SDS011;67412;49.892;14.490;2024-03-22T01:06:04;18.30;;;7.30;;
78169;SDS011;67412;49.892;14.490;2024-03-22T01:08:29;19.13;;;7.10;;
78169;SDS011;67412;49.892;14.490;2024-03-22T01:10:55;18.63;;;7.80;;
78169;SDS011;67412;49.892;14.490;2024-03-22T01:13:20;18.08;;;7.72;;
78169;SDS011;67412;49.892;14.490;2024-03-22T01:15:46;20.75;;;7.47;;
78169;SDS011;67412;49.892;14.490;2024-03-22T01:18:11;17.08;;;6.55;;
78169;SDS011;67412;49.892;14.490;2024-03-22T01:20:37;16.42;;;7.07;;
78169;SDS011;67412;49.892;14.490;2024-03-22T01:23:03;18.63;;;6.75;;
78169;SDS011;67412;49.892;14.490;2024-03-22T01:25:29;17.92;;;6.45;;
78169;SDS011;67412;49.892;14.490;2024-03-22T01:27:55;16.27;;;6.63;;
78169;SDS011;67412;49.892;14.490;2024-03-22T01:30:20;20.92;;;7.80;;
78169;SDS011;67412;49.892;14.490;2024-03-22T01:32:46;19.27;;;6.95;;
78169;SDS011;67412;49.892;14.490;2024-03-22T01:35:11;20.75;;;7.57;;
78169;SDS011;67412;49.892;14.490;2024-03-22T01:37:36;17.02;;;6.80;;
78169;SDS011;67412;49.892;14.490;2024-03-22T01:40:02;18.27;;;7.43;;
78169;SDS011;67412;49.892;14.490;2024-03-22T01:42:29;18.27;;;6.97;;
78169;SDS011;67412;49.892;14.490;2024-03-22T01:44:55;18.13;;;7.13;;
78169;SDS011;67412;49.892;14.490;2024-03-22T01:47:20;16.65;;;6.60;;
78169;SDS011;67412;49.892;14.490;2024-03-22T01:49:46;20.35;;;7.22;;
78169;SDS011;67412;49.892;14.490;2024-03-22T01:52:13;17.67;;;6.95;;
78169;SDS011;67412;49.892;14.490;2024-03-22T01:54:39;19.52;;;7.38;;
78169;SDS011;67412;49.892;14.490;2024-03-22T01:57:05;18.77;;;7.03;;
78169;SDS011;67412;49.892;14.490;2024-03-22T01:59:30;16.65;;;7.05;;
78169;SDS011;67412;49.892;14.490;2024-03-22T02:01:57;16.73;;;7.13;;
78169;SDS011;67412;49.892;14.490;2024-03-22T02:04:23;15.77;;;6.32;;
78169;SDS011;67412;49.892;14.490;2024-03-22T02:06:49;16.25;;;6.43;;
78169;SDS011;67412;49.892;14.490;2024-03-22T02:09:14;16.42;;;6.85;;
78169;SDS011;67412;49.892;14.490;2024-03-22T02:11:40;16.92;;;6.32;;
78169;SDS011;67412;49.892;14.490;2024-03-22T02:14:05;18.67;;;7.47;;
78169;SDS011;67412;49.892;14.490;2024-03-22T02:16:31;16.60;;;6.00;;
78169;SDS011;67412;49.892;14.490;2024-03-22T02:18:56;16.17;;;6.90;;
78169;SDS011;67412;49.892;14.490;2024-03-22T02:21:22;15.57;;;6.60;;
78169;SDS011;67412;49.892;14.490;2024-03-22T02:23:47;15.98;;;6.32;;
78169;SDS011;67412;49.892;14.490;2024-03-22T02:26:12;15.38;;;5.90;;
78169;SDS011;67412;49.892;14.490;2024-03-22T02:28:38;18.35;;;7.35;;
78169;SDS011;67412;49.892;14.490;2024-03-22T02:31:03;16.73;;;6.93;;
78169;SDS011;67412;49.892;14.490;2024-03-22T02:33:29;19.02;;;6.70;;
78169;SDS011;67412;49.892;14.490;2024-03-22T02:35:55;15.15;;;6.10;;
78169;SDS011;67412;49.892;14.490;2024-03-22T02:38:20;16.23;;;6.60;;
78169;SDS011;67412;49.892;14.490;2024-03-22T02:40:46;17.85;;;6.57;;
78169;SDS011;67412;49.892;14.490;2024-03-22T02:45:38;15.32;;;6.50;;
78169;SDS011;67412;49.892;14.490;2024-03-22T02:48:04;16.27;;;6.90;;
78169;SDS011;67412;49.892;14.490;2024-03-22T02:50:33;15.82;;;6.25;;
78169;SDS011;67412;49.892;14.490;2024-03-22T02:52:59;18.48;;;7.22;;
78169;SDS011;67412;49.892;14.490;2024-03-22T02:55:25;16.48;;;6.45;;
78169;SDS011;67412;49.892;14.490;2024-03-22T02:57:50;17.67;;;7.25;;
78169;SDS011;67412;49.892;14.490;2024-03-22T03:00:16;15.23;;;6.30;;
78169;SDS011;67412;49.892;14.490;2024-03-22T03:02:41;16.15;;;6.78;;
78169;SDS011;67412;49.892;14.490;2024-03-22T03:05:07;18.42;;;7.75;;
78169;SDS011;67412;49.892;14.490;2024-03-22T03:07:32;20.27;;;8.68;;
78169;SDS011;67412;49.892;14.490;2024-03-22T03:09:59;17.52;;;7.18;;
78169;SDS011;67412;49.892;14.490;2024-03-22T03:12:24;18.52;;;7.43;;
78169;SDS011;67412;49.892;14.490;2024-03-22T03:14:50;17.40;;;7.28;;
78169;SDS011;67412;49.892;14.490;2024-03-22T03:17:15;17.05;;;7.28;;
78169;SDS011;67412;49.892;14.490;2024-03-22T03:19:40;21.20;;;8.52;;
78169;SDS011;67412;49.892;14.490;2024-03-22T03:22:06;18.25;;;7.43;;
78169;SDS011;67412;49.892;14.490;2024-03-22T03:24:31;18.60;;;7.95;;
78169;SDS011;67412;49.892;14.490;2024-03-22T03:26:56;18.85;;;8.10;;
78169;SDS011;67412;49.892;14.490;2024-03-22T03:29:22;20.08;;;7.68;;
78169;SDS011;67412;49.892;14.490;2024-03-22T03:31:47;19.98;;;7.68;;
78169;SDS011;67412;49.892;14.490;2024-03-22T03:34:13;20.73;;;8.10;;
78169;SDS011;67412;49.892;14.490;2024-03-22T03:36:39;20.85;;;8.18;;
78169;SDS011;67412;49.892;14.490;2024-03-22T03:39:04;21.25;;;8.40;;
78169;SDS011;67412;49.892;14.490;2024-03-22T03:41:30;19.13;;;7.63;;
78169;SDS011;67412;49.892;14.490;2024-03-22T03:43:55;19.45;;;7.60;;
78169;SDS011;67412;49.892;14.490;2024-03-22T03:46:20;19.13;;;7.82;;
78169;SDS011;67412;49.892;14.490;2024-03-22T03:48:46;19.60;;;7.65;;
78169;SDS011;67412;49.892;14.490;2024-03-22T03:51:11;19.15;;;8.02;;
78169;SDS011;67412;49.892;14.490;2024-03-22T03:53:37;18.65;;;7.10;;
78169;SDS011;67412;49.892;14.490;2024-03-22T03:56:02;19.48;;;8.48;;
78169;SDS011;67412;49.892;14.490;2024-03-22T03:58:27;17.90;;;7.63;;
78169;SDS011;67412;49.892;14.490;2024-03-22T04:00:53;19.17;;;7.65;;
78169;SDS011;67412;49.892;14.490;2024-03-22T04:03:18;17.05;;;7.53;;
78169;SDS011;67412;49.892;14.490;2024-03-22T04:05:44;20.83;;;8.35;;
78169;SDS011;67412;49.892;14.490;2024-03-22T04:08:09;19.33;;;7.65;;
78169;SDS011;67412;49.892;14.490;2024-03-22T04:10:34;18.55;;;8.10;;
78169;SDS011;67412;49.892;14.490;2024-03-22T04:13:00;18.05;;;7.45;;
78169;SDS011;67412;49.892;14.490;2024-03-22T04:15:25;19.90;;;8.45;;
78169;SDS011;67412;49.892;14.490;2024-03-22T04:17:50;21.83;;;8.38;;
78169;SDS011;67412;49.892;14.490;2024-03-22T04:20:16;18.63;;;7.60;;
78169;SDS011;67412;49.892;14.490;2024-03-22T04:22:41;16.90;;;7.82;;
78169;SDS011;67412;49.892;14.490;2024-03-22T04:25:06;17.45;;;7.18;;
78169;SDS011;67412;49.892;14.490;2024-03-22T04:27:35;17.67;;;6.43;;
78169;SDS011;67412;49.892;14.490;2024-03-22T04:30:01;18.13;;;6.53;;
78169;SDS011;67412;49.892;14.490;2024-03-22T04:32:26;16.50;;;6.72;;
78169;SDS011;67412;49.892;14.490;2024-03-22T04:34:52;17.92;;;7.10;;
78169;SDS011;67412;49.892;14.490;2024-03-22T04:37:17;15.88;;;6.93;;
78169;SDS011;67412;49.892;14.490;2024-03-22T04:39:45;17.20;;;6.85;;
78169;SDS011;67412;49.892;14.490;2024-03-22T04:42:11;19.58;;;7.13;;
78169;SDS011;67412;49.892;14.490;2024-03-22T04:44:36;14.02;;;5.30;;
78169;SDS011;67412;49.892;14.490;2024-03-22T04:47:01;14.43;;;6.25;;
78169;SDS011;67412;49.892;14.490;2024-03-22T04:49:27;14.05;;;5.50;;
78169;SDS011;67412;49.892;14.490;2024-03-22T04:51:52;14.18;;;4.97;;
78169;SDS011;67412;49.892;14.490;2024-03-22T04:54:18;15.18;;;6.47;;
78169;SDS011;67412;49.892;14.490;2024-03-22T04:56:43;13.35;;;5.40;;
78169;SDS011;67412;49.892;14.490;2024-03-22T04:59:09;15.05;;;5.25;;
78169;SDS011;67412;49.892;14.490;2024-03-22T05:01:34;11.00;;;5.00;;
78169;SDS011;67412;49.892;14.490;2024-03-22T05:03:59;12.73;;;5.35;;
78169;SDS011;67412;49.892;14.490;2024-03-22T05:06:25;11.40;;;5.50;;
78169;SDS011;67412;49.892;14.490;2024-03-22T05:08:50;13.40;;;4.90;;
78169;SDS011;67412;49.892;14.490;2024-03-22T05:11:15;12.63;;;4.78;;
78169;SDS011;67412;49.892;14.490;2024-03-22T05:13:41;11.65;;;4.72;;
78169;SDS011;67412;49.892;14.490;2024-03-22T05:16:06;12.43;;;4.05;;
78169;SDS011;67412;49.892;14.490;2024-03-22T05:18:32;10.30;;;3.95;;
78169;SDS011;67412;49.892;14.490;2024-03-22T05:20:57;12.40;;;4.28;;
78169;SDS011;67412;49.892;14.490;2024-03-22T05:23:23;10.07;;;3.47;;
78169;SDS011;67412;49.892;14.490;2024-03-22T05:25:48;13.38;;;4.43;;
78169;SDS011;67412;49.892;14.490;2024-03-22T05:28:13;10.90;;;4.00;;
78169;SDS011;67412;49.892;14.490;2024-03-22T05:30:39;11.57;;;4.28;;
78169;SDS011;67412;49.892;14.490;2024-03-22T05:33:05;12.43;;;3.92;;
78169;SDS011;67412;49.892;14.490;2024-03-22T05:35:30;12.63;;;4.38;;
78169;SDS011;67412;49.892;14.490;2024-03-22T05:37:56;11.05;;;4.22;;
78169;SDS011;67412;49.892;14.490;2024-03-22T05:40:21;14.48;;;4.65;;
78169;SDS011;67412;49.892;14.490;2024-03-22T05:42:47;11.35;;;4.00;;
78169;SDS011;67412;49.892;14.490;2024-03-22T05:45:12;10.48;;;3.75;;
78169;SDS011;67412;49.892;14.490;2024-03-22T05:47:37;12.95;;;4.35;;
78169;SDS011;67412;49.892;14.490;2024-03-22T05:50:03;8.90;;;3.42;;
78169;SDS011;67412;49.892;14.490;2024-03-22T05:52:32;9.45;;;3.65;;
78169;SDS011;67412;49.892;14.490;2024-03-22T05:54:58;11.18;;;3.70;;
78169;SDS011;67412;49.892;14.490;2024-03-22T05:57:23;8.68;;;3.13;;
78169;SDS011;67412;49.892;14.490;2024-03-22T05:59:49;10.00;;;3.60;;
78169;SDS011;67412;49.892;14.490;2024-03-22T06:02:14;11.10;;;3.60;;
78169;SDS011;67412;49.892;14.490;2024-03-22T06:04:40;9.43;;;3.85;;
78169;SDS011;67412;49.892;14.490;2024-03-22T06:07:06;9.98;;;3.33;;
78169;SDS011;67412;49.892;14.490;2024-03-22T06:09:31;9.85;;;3.70;;
78169;SDS011;67412;49.892;14.490;2024-03-22T06:12:05;9.77;;;3.63;;
78169;SDS011;67412;49.892;14.490;2024-03-22T06:14:30;10.13;;;3.50;;
78169;SDS011;67412;49.892;14.490;2024-03-22T06:16:56;9.45;;;3.47;;
78169;SDS011;67412;49.892;14.490;2024-03-22T06:19:22;9.60;;;3.90;;
78169;SDS011;67412;49.892;14.490;2024-03-22T06:21:48;11.68;;;3.90;;
78169;SDS011;67412;49.892;14.490;2024-03-22T06:24:13;9.55;;;3.67;;
78169;SDS011;67412;49.892;14.490;2024-03-22T06:26:39;10.13;;;3.88;;
78169;SDS011;67412;49.892;14.490;2024-03-22T06:29:04;12.07;;;4.10;;
78169;SDS011;67412;49.892;14.490;2024-03-22T06:31:30;11.27;;;4.25;;
78169;SDS011;67412;49.892;14.490;2024-03-22T06:33:56;13.52;;;3.90;;
78169;SDS011;67412;49.892;14.490;2024-03-22T06:36:27;10.75;;;4.20;;
78169;SDS011;67412;49.892;14.490;2024-03-22T06:38:52;12.82;;;3.95;;
78169;SDS011;67412;49.892;14.490;2024-03-22T06:41:18;11.30;;;4.30;;
78169;SDS011;67412;49.892;14.490;2024-03-22T06:43:43;10.90;;;4.10;;
78169;SDS011;67412;49.892;14.490;2024-03-22T06:46:08;9.13;;;3.35;;
78169;SDS011;67412;49.892;14.490;2024-03-22T06:48:34;9.40;;;4.25;;
78169;SDS011;67412;49.892;14.490;2024-03-22T06:50:59;8.52;;;3.47;;
78169;SDS011;67412;49.892;14.490;2024-03-22T06:53:24;10.07;;;3.67;;
78169;SDS011;67412;49.892;14.490;2024-03-22T06:55:50;10.82;;;3.88;;
78169;SDS011;67412;49.892;14.490;2024-03-22T06:58:15;9.80;;;4.15;;
78169;SDS011;67412;49.892;14.490;2024-03-22T07:00:40;9.18;;;4.15;;
78169;SDS011;67412;49.892;14.490;2024-03-22T07:03:06;10.52;;;3.90;;
78169;SDS011;67412;49.892;14.490;2024-03-22T07:05:32;8.98;;;3.20;;
78169;SDS011;67412;49.892;14.490;2024-03-22T07:07:57;9.25;;;3.17;;
78169;SDS011;67412;49.892;14.490;2024-03-22T07:10:23;8.10;;;3.40;;
78169;SDS011;67412;49.892;14.490;2024-03-22T07:12:52;8.52;;;3.05;;
78169;SDS011;67412;49.892;14.490;2024-03-22T07:15:23;8.50;;;3.25;;
78169;SDS011;67412;49.892;14.490;2024-03-22T07:17:48;7.32;;;2.60;;
78169;SDS011;67412;49.892;14.490;2024-03-22T07:20:14;7.97;;;3.00;;
78169;SDS011;67412;49.892;14.490;2024-03-22T07:22:39;8.48;;;2.85;;
78169;SDS011;67412;49.892;14.490;2024-03-22T07:25:05;8.98;;;3.17;;
78169;SDS011;67412;49.892;14.490;2024-03-22T07:27:31;8.90;;;3.22;;
78169;SDS011;67412;49.892;14.490;2024-03-22T07:29:56;10.38;;;3.80;;
78169;SDS011;67412;49.892;14.490;2024-03-22T07:32:22;9.38;;;3.15;;
78169;SDS011;67412;49.892;14.490;2024-03-22T07:34:47;10.30;;;3.42;;
78169;SDS011;67412;49.892;14.490;2024-03-22T07:37:13;10.20;;;3.80;;
78169;SDS011;67412;49.892;14.490;2024-03-22T07:39:38;9.30;;;3.50;;
78169;SDS011;67412;49.892;14.490;2024-03-22T07:42:03;9.95;;;3.55;;
78169;SDS011;67412;49.892;14.490;2024-03-22T07:44:29;9.90;;;3.30;;
78169;SDS011;67412;49.892;14.490;2024-03-22T07:46:54;10.88;;;3.58;;
78169;SDS011;67412;49.892;14.490;2024-03-22T07:49:20;8.95;;;3.60;;
78169;SDS011;67412;49.892;14.490;2024-03-22T07:51:45;8.18;;;3.25;;
78169;SDS011;67412;49.892;14.490;2024-03-22T07:54:10;9.65;;;3.17;;
78169;SDS011;67412;49.892;14.490;2024-03-22T07:56:36;7.30;;;3.13;;
78169;SDS011;67412;49.892;14.490;2024-03-22T07:59:01;8.75;;;2.88;;
78169;SDS011;67412;49.892;14.490;2024-03-22T08:01:27;9.57;;;3.47;;
78169;SDS011;67412;49.892;14.490;2024-03-22T08:03:52;9.27;;;3.47;;
78169;SDS011;67412;49.892;14.490;2024-03-22T08:06:18;7.93;;;2.83;;
78169;SDS011;67412;49.892;14.490;2024-03-22T08:08:43;7.13;;;2.65;;
78169;SDS011;67412;49.892;14.490;2024-03-22T08:11:09;8.43;;;3.30;;
78169;SDS011;67412;49.892;14.490;2024-03-22T08:13:34;8.80;;;2.70;;
78169;SDS011;67412;49.892;14.490;2024-03-22T08:16:00;8.77;;;2.90;;
78169;SDS011;67412;49.892;14.490;2024-03-22T08:18:25;8.38;;;3.20;;
78169;SDS011;67412;49.892;14.490;2024-03-22T08:20:51;8.57;;;3.15;;
78169;SDS011;67412;49.892;14.490;2024-03-22T08:23:16;9.35;;;3.63;;
78169;SDS011;67412;49.892;14.490;2024-03-22T08:25:45;11.02;;;3.15;;
78169;SDS011;67412;49.892;14.490;2024-03-22T08:28:10;7.78;;;2.60;;
78169;SDS011;67412;49.892;14.490;2024-03-22T08:30:37;8.77;;;3.33;;
78169;SDS011;67412;49.892;14.490;2024-03-22T08:33:03;10.88;;;3.30;;
78169;SDS011;67412;49.892;14.490;2024-03-22T08:35:29;9.27;;;2.95;;
78169;SDS011;67412;49.892;14.490;2024-03-22T08:37:54;7.50;;;2.78;;
78169;SDS011;67412;49.892;14.490;2024-03-22T08:40:20;11.02;;;3.88;;
78169;SDS011;67412;49.892;14.490;2024-03-22T08:42:45;9.68;;;3.50;;
78169;SDS011;67412;49.892;14.490;2024-03-22T08:45:10;9.88;;;3.40;;
78169;SDS011;67412;49.892;14.490;2024-03-22T08:47:36;11.35;;;4.20;;
78169;SDS011;67412;49.892;14.490;2024-03-22T08:50:01;11.55;;;4.05;;
78169;SDS011;67412;49.892;14.490;2024-03-22T08:52:27;15.45;;;4.72;;
78169;SDS011;67412;49.892;14.490;2024-03-22T08:54:52;16.52;;;5.50;;
78169;SDS011;67412;49.892;14.490;2024-03-22T08:57:18;15.75;;;5.20;;
78169;SDS011;67412;49.892;14.490;2024-03-22T08:59:44;14.93;;;4.72;;
78169;SDS011;67412;49.892;14.490;2024-03-22T09:02:09;11.23;;;4.18;;
78169;SDS011;67412;49.892;14.490;2024-03-22T09:04:36;10.57;;;3.92;;
78169;SDS011;67412;49.892;14.490;2024-03-22T09:07:02;15.57;;;5.50;;
78169;SDS011;67412;49.892;14.490;2024-03-22T09:09:27;12.93;;;4.68;;
78169;SDS011;67412;49.892;14.490;2024-03-22T09:11:53;15.10;;;5.32;;
78169;SDS011;67412;49.892;14.490;2024-03-22T09:14:18;16.17;;;5.15;;
78169;SDS011;67412;49.892;14.490;2024-03-22T09:16:43;14.43;;;5.07;;
78169;SDS011;67412;49.892;14.490;2024-03-22T09:19:09;13.75;;;5.07;;
78169;SDS011;67412;49.892;14.490;2024-03-22T09:21:36;12.02;;;4.30;;
78169;SDS011;67412;49.892;14.490;2024-03-22T09:24:01;12.95;;;5.47;;
78169;SDS011;67412;49.892;14.490;2024-03-22T09:26:28;13.05;;;4.45;;
78169;SDS011;67412;49.892;14.490;2024-03-22T09:28:53;15.00;;;5.40;;
78169;SDS011;67412;49.892;14.490;2024-03-22T09:31:19;11.93;;;4.13;;
78169;SDS011;67412;49.892;14.490;2024-03-22T09:33:44;9.82;;;3.80;;
78169;SDS011;67412;49.892;14.490;2024-03-22T09:36:10;11.35;;;4.03;;
78169;SDS011;67412;49.892;14.490;2024-03-22T09:38:35;8.95;;;3.60;;
78169;SDS011;67412;49.892;14.490;2024-03-22T09:41:01;11.38;;;3.80;;
78169;SDS011;67412;49.892;14.490;2024-03-22T09:43:26;11.05;;;3.70;;
78169;SDS011;67412;49.892;14.490;2024-03-22T09:45:54;9.90;;;3.83;;
78169;SDS011;67412;49.892;14.490;2024-03-22T09:48:20;11.43;;;3.70;;
78169;SDS011;67412;49.892;14.490;2024-03-22T09:50:46;10.32;;;3.83;;
78169;SDS011;67412;49.892;14.490;2024-03-22T09:53:18;10.95;;;3.80;;
78169;SDS011;67412;49.892;14.490;2024-03-22T09:55:45;9.75;;;3.22;;
78169;SDS011;67412;49.892;14.490;2024-03-22T09:58:12;12.80;;;4.20;;
78169;SDS011;67412;49.892;14.490;2024-03-22T10:00:37;12.65;;;4.30;;
78169;SDS011;67412;49.892;14.490;2024-03-22T10:03:03;11.70;;;4.15;;
78169;SDS011;67412;49.892;14.490;2024-03-22T10:05:29;12.80;;;3.65;;
78169;SDS011;67412;49.892;14.490;2024-03-22T10:07:55;12.82;;;4.53;;
78169;SDS011;67412;49.892;14.490;2024-03-22T10:10:20;11.00;;;3.42;;
78169;SDS011;67412;49.892;14.490;2024-03-22T10:12:46;8.50;;;3.30;;
78169;SDS011;67412;49.892;14.490;2024-03-22T10:15:12;10.40;;;3.35;;
78169;SDS011;67412;49.892;14.490;2024-03-22T10:17:38;11.18;;;4.15;;
78169;SDS011;67412;49.892;14.490;2024-03-22T10:20:04;12.10;;;4.10;;
78169;SDS011;67412;49.892;14.490;2024-03-22T10:25:04;6.73;;;2.27;;
78169;SDS011;67412;49.892;14.490;2024-03-22T10:27:31;9.65;;;3.05;;
78169;SDS011;67412;49.892;14.490;2024-03-22T10:29:57;11.15;;;3.38;;
78169;SDS011;67412;49.892;14.490;2024-03-22T10:32:23;7.28;;;3.13;;
78169;SDS011;67412;49.892;14.490;2024-03-22T10:34:49;10.85;;;3.92;;
78169;SDS011;67412;49.892;14.490;2024-03-22T10:37:15;9.00;;;3.25;;
78169;SDS011;67412;49.892;14.490;2024-03-22T10:39:42;8.15;;;2.75;;
78169;SDS011;67412;49.892;14.490;2024-03-22T10:42:09;7.55;;;2.47;;
78169;SDS011;67412;49.892;14.490;2024-03-22T10:44:35;11.02;;;4.22;;
78169;SDS011;67412;49.892;14.490;2024-03-22T10:47:00;8.57;;;3.10;;
78169;SDS011;67412;49.892;14.490;2024-03-22T10:49:29;5.60;;;2.25;;
78169;SDS011;67412;49.892;14.490;2024-03-22T10:51:59;8.98;;;2.70;;
78169;SDS011;67412;49.892;14.490;2024-03-22T10:54:37;7.28;;;3.00;;
78169;SDS011;67412;49.892;14.490;2024-03-22T10:57:05;9.68;;;3.00;;
78169;SDS011;67412;49.892;14.490;2024-03-22T10:59:34;10.20;;;3.17;;
78169;SDS011;67412;49.892;14.490;2024-03-22T11:02:03;9.88;;;3.42;;
78169;SDS011;67412;49.892;14.490;2024-03-22T11:04:29;12.07;;;3.95;;
78169;SDS011;67412;49.892;14.490;2024-03-22T11:06:56;8.52;;;3.00;;
78169;SDS011;67412;49.892;14.490;2024-03-22T11:09:23;11.52;;;4.07;;
78169;SDS011;67412;49.892;14.490;2024-03-22T11:11:52;8.95;;;2.88;;
78169;SDS011;67412;49.892;14.490;2024-03-22T11:14:18;10.10;;;3.30;;
78169;SDS011;67412;49.892;14.490;2024-03-22T11:16:46;10.10;;;3.28;;
78169;SDS011;67412;49.892;14.490;2024-03-22T11:19:12;8.60;;;2.85;;
78169;SDS011;67412;49.892;14.490;2024-03-22T11:21:38;12.52;;;3.75;;
78169;SDS011;67412;49.892;14.490;2024-03-22T11:24:04;12.73;;;3.33;;
78169;SDS011;67412;49.892;14.490;2024-03-22T11:26:30;12.80;;;4.07;;
78169;SDS011;67412;49.892;14.490;2024-03-22T11:28:56;11.27;;;3.53;;
78169;SDS011;67412;49.892;14.490;2024-03-22T11:31:22;9.80;;;3.20;;
78169;SDS011;67412;49.892;14.490;2024-03-22T11:33:52;12.30;;;4.35;;
78169;SDS011;67412;49.892;14.490;2024-03-22T11:36:18;11.75;;;3.88;;
78169;SDS011;67412;49.892;14.490;2024-03-22T11:38:44;9.88;;;3.58;;
78169;SDS011;67412;49.892;14.490;2024-03-22T11:41:09;9.50;;;3.67;;
78169;SDS011;67412;49.892;14.490;2024-03-22T11:43:36;12.40;;;4.20;;
78169;SDS011;67412;49.892;14.490;2024-03-22T11:46:01;10.02;;;4.03;;
78169;SDS011;67412;49.892;14.490;2024-03-22T11:48:27;13.68;;;4.93;;
78169;SDS011;67412;49.892;14.490;2024-03-22T11:50:52;9.50;;;3.03;;
78169;SDS011;67412;49.892;14.490;2024-03-22T11:53:18;11.68;;;3.47;;
78169;SDS011;67412;49.892;14.490;2024-03-22T11:55:43;13.25;;;4.60;;
78169;SDS011;67412;49.892;14.490;2024-03-22T11:58:12;10.57;;;3.70;;
78169;SDS011;67412;49.892;14.490;2024-03-22T12:00:38;10.10;;;3.67;;
78169;SDS011;67412;49.892;14.490;2024-03-22T12:03:06;11.02;;;3.92;;
78169;SDS011;67412;49.892;14.490;2024-03-22T12:05:31;10.30;;;3.58;;
78169;SDS011;67412;49.892;14.490;2024-03-22T12:07:57;7.35;;;2.70;;
78169;SDS011;67412;49.892;14.490;2024-03-22T12:10:22;8.85;;;3.10;;
78169;SDS011;67412;49.892;14.490;2024-03-22T12:12:48;9.25;;;3.38;;
78169;SDS011;67412;49.892;14.490;2024-03-22T12:15:13;9.70;;;3.28;;
78169;SDS011;67412;49.892;14.490;2024-03-22T12:17:38;8.73;;;2.80;;
78169;SDS011;67412;49.892;14.490;2024-03-22T12:20:05;9.52;;;3.58;;
78169;SDS011;67412;49.892;14.490;2024-03-22T12:22:33;8.23;;;3.22;;
78169;SDS011;67412;49.892;14.490;2024-03-22T12:24:59;9.45;;;3.50;;
78169;SDS011;67412;49.892;14.490;2024-03-22T12:27:24;9.68;;;3.45;;
78169;SDS011;67412;49.892;14.490;2024-03-22T12:29:50;6.57;;;2.20;;
78169;SDS011;67412;49.892;14.490;2024-03-22T12:32:15;8.95;;;2.55;;
78169;SDS011;67412;49.892;14.490;2024-03-22T12:34:41;8.88;;;2.97;;
78169;SDS011;67412;49.892;14.490;2024-03-22T12:37:06;8.35;;;2.88;;
78169;SDS011;67412;49.892;14.490;2024-03-22T12:39:32;7.88;;;2.92;;
78169;SDS011;67412;49.892;14.490;2024-03-22T12:41:57;7.07;;;2.63;;
78169;SDS011;67412;49.892;14.490;2024-03-22T12:44:22;7.97;;;2.80;;
78169;SDS011;67412;49.892;14.490;2024-03-22T12:46:48;8.18;;;2.85;;
78169;SDS011;67412;49.892;14.490;2024-03-22T12:49:16;8.25;;;2.65;;
78169;SDS011;67412;49.892;14.490;2024-03-22T12:51:41;6.82;;;2.22;;
78169;SDS011;67412;49.892;14.490;2024-03-22T12:54:07;6.45;;;2.13;;
78169;SDS011;67412;49.892;14.490;2024-03-22T12:56:32;6.30;;;2.15;;
78169;SDS011;67412;49.892;14.490;2024-03-22T12:58:58;8.38;;;3.15;;
78169;SDS011;67412;49.892;14.490;2024-03-22T13:01:24;8.15;;;2.50;;
78169;SDS011;67412;49.892;14.490;2024-03-22T13:03:50;6.13;;;1.90;;
78169;SDS011;67412;49.892;14.490;2024-03-22T13:06:15;7.10;;;2.60;;
78169;SDS011;67412;49.892;14.490;2024-03-22T13:08:40;6.65;;;2.22;;
78169;SDS011;67412;49.892;14.490;2024-03-22T13:11:06;4.70;;;1.80;;
78169;SDS011;67412;49.892;14.490;2024-03-22T13:13:37;6.05;;;1.70;;
78169;SDS011;67412;49.892;14.490;2024-03-22T13:16:03;6.97;;;2.25;;
78169;SDS011;67412;49.892;14.490;2024-03-22T13:18:29;4.43;;;1.88;;
78169;SDS011;67412;49.892;14.490;2024-03-22T13:20:55;6.25;;;1.52;;
78169;SDS011;67412;49.892;14.490;2024-03-22T13:23:20;5.85;;;1.88;;
78169;SDS011;67412;49.892;14.490;2024-03-22T13:25:46;6.50;;;1.90;;
78169;SDS011;67412;49.892;14.490;2024-03-22T13:28:11;3.78;;;1.38;;
78169;SDS011;67412;49.892;14.490;2024-03-22T13:30:36;4.43;;;1.33;;
78169;SDS011;67412;49.892;14.490;2024-03-22T13:33:02;5.90;;;2.33;;
78169;SDS011;67412;49.892;14.490;2024-03-22T13:35:28;6.20;;;1.80;;
78169;SDS011;67412;49.892;14.490;2024-03-22T13:37:53;6.75;;;1.90;;
78169;SDS011;67412;49.892;14.490;2024-03-22T13:40:19;7.80;;;2.13;;
78169;SDS011;67412;49.892;14.490;2024-03-22T13:42:44;6.50;;;2.00;;
78169;SDS011;67412;49.892;14.490;2024-03-22T13:45:10;5.70;;;1.92;;
78169;SDS011;67412;49.892;14.490;2024-03-22T13:47:36;6.88;;;1.88;;
78169;SDS011;67412;49.892;14.490;2024-03-22T13:50:06;6.22;;;2.28;;
78169;SDS011;67412;49.892;14.490;2024-03-22T13:52:33;6.10;;;1.90;;
78169;SDS011;67412;49.892;14.490;2024-03-22T13:55:00;4.25;;;1.65;;
78169;SDS011;67412;49.892;14.490;2024-03-22T13:59:51;6.53;;;1.90;;
78169;SDS011;67412;49.892;14.490;2024-03-22T14:02:17;5.05;;;1.65;;
78169;SDS011;67412;49.892;14.490;2024-03-22T14:04:42;5.60;;;1.70;;
78169;SDS011;67412;49.892;14.490;2024-03-22T14:07:07;4.45;;;1.40;;
78169;SDS011;67412;49.892;14.490;2024-03-22T14:09:34;5.45;;;1.65;;
78169;SDS011;67412;49.892;14.490;2024-03-22T14:12:01;4.47;;;1.85;;
78169;SDS011;67412;49.892;14.490;2024-03-22T14:14:26;5.25;;;2.05;;
78169;SDS011;67412;49.892;14.490;2024-03-22T14:16:52;5.13;;;1.58;;
78169;SDS011;67412;49.892;14.490;2024-03-22T14:19:18;4.20;;;1.50;;
78169;SDS011;67412;49.892;14.490;2024-03-22T14:21:44;3.88;;;1.52;;
78169;SDS011;67412;49.892;14.490;2024-03-22T14:24:13;6.03;;;1.30;;